KCKB/CKB METAR and TAF weather

Enter ICAO airport designator
Station Type Date Time Source
KCKB METAR 2020/04/08 21:53 UTC NOAA

KCKB 082153Z 35008KT 10SM CLR 22/08 A2968 RMK AO2 SLP038 T02220078


Station Type Date Time Source
KCKB Decoded METAR 2020/04/08 21:53 UTC NOAA

HARRISON/MARION REGIONAL, WV, United States (KCKB) 39-18N 080-13W 360M
Apr 08, 2020 - 05:53 PM EDT / 2020.04.08 2153 UTC
Wind: from the N (350 degrees) at 9 MPH (8 KT):0
Visibility: 10 mile(s):0
Sky conditions: clear
Temperature: 72.0 F (22.2 C)
Dew Point: 46.0 F (7.8 C)
Relative Humidity: 39%
Pressure (altimeter): 29.68 in. Hg (1005 hPa)
ob: KCKB 082153Z 35008KT 10SM CLR 22/08 A2968 RMK AO2 SLP038 T02220078
cycle: 22

Station Type Date Time Source
KCKB TAF 2020/04/08 20:12 UTC NOAA

TAF
AMD KCKB 082009Z 0820/0918 29009KT P6SM SCT045
FM082100 32007KT P6SM FEW060
FM090800 20007KT 4SM SHRA VCTS OVC045CB
FM091100 25008G17KT 6SM SHRA VCTS OVC017CB
FM091200 26009G18KT P6SM -SHRA OVC009
FM091300 28011G18KT P6SM OVC014

Example: see airport list